sensor_id;sensor_type;location;lat;lon;timestamp;P1;durP1;ratioP1;P2;durP2;ratioP2
14516;SDS011;7344;50.864;4.362;2023-02-26T00:01:13;13.33;;;4.47;;
14516;SDS011;7344;50.864;4.362;2023-02-26T00:03:40;14.93;;;5.47;;
14516;SDS011;7344;50.864;4.362;2023-02-26T00:06:06;12.33;;;4.83;;
14516;SDS011;7344;50.864;4.362;2023-02-26T00:08:31;13.23;;;4.20;;
14516;SDS011;7344;50.864;4.362;2023-02-26T00:10:57;11.03;;;5.00;;
14516;SDS011;7344;50.864;4.362;2023-02-26T00:13:25;10.10;;;4.87;;
14516;SDS011;7344;50.864;4.362;2023-02-26T00:15:58;12.77;;;4.67;;
14516;SDS011;7344;50.864;4.362;2023-02-26T00:18:25;14.97;;;4.20;;
14516;SDS011;7344;50.864;4.362;2023-02-26T00:20:51;13.40;;;4.00;;
14516;SDS011;7344;50.864;4.362;2023-02-26T00:23:17;8.93;;;4.53;;
14516;SDS011;7344;50.864;4.362;2023-02-26T00:25:43;9.70;;;4.23;;
14516;SDS011;7344;50.864;4.362;2023-02-26T00:28:09;11.80;;;4.17;;
14516;SDS011;7344;50.864;4.362;2023-02-26T00:30:35;14.67;;;4.37;;
14516;SDS011;7344;50.864;4.362;2023-02-26T00:33:02;11.80;;;3.97;;
14516;SDS011;7344;50.864;4.362;2023-02-26T00:35:47;9.20;;;3.80;;
14516;SDS011;7344;50.864;4.362;2023-02-26T00:38:13;10.00;;;3.73;;
14516;SDS011;7344;50.864;4.362;2023-02-26T00:40:47;10.57;;;4.20;;
14516;SDS011;7344;50.864;4.362;2023-02-26T00:43:15;9.20;;;3.40;;
14516;SDS011;7344;50.864;4.362;2023-02-26T00:48:36;10.67;;;3.83;;
14516;SDS011;7344;50.864;4.362;2023-02-26T00:51:26;11.47;;;3.90;;
14516;SDS011;7344;50.864;4.362;2023-02-26T00:53:58;10.93;;;3.97;;
14516;SDS011;7344;50.864;4.362;2023-02-26T00:56:26;9.60;;;3.93;;
14516;SDS011;7344;50.864;4.362;2023-02-26T00:58:52;11.87;;;4.40;;
14516;SDS011;7344;50.864;4.362;2023-02-26T01:01:18;12.27;;;3.60;;
14516;SDS011;7344;50.864;4.362;2023-02-26T01:03:43;12.17;;;4.50;;
14516;SDS011;7344;50.864;4.362;2023-02-26T01:06:10;14.17;;;4.27;;
14516;SDS011;7344;50.864;4.362;2023-02-26T01:08:42;18.23;;;4.33;;
14516;SDS011;7344;50.864;4.362;2023-02-26T01:11:14;9.27;;;4.17;;
14516;SDS011;7344;50.864;4.362;2023-02-26T01:13:40;10.23;;;3.67;;
14516;SDS011;7344;50.864;4.362;2023-02-26T01:16:08;12.30;;;4.63;;
14516;SDS011;7344;50.864;4.362;2023-02-26T01:18:45;13.73;;;3.80;;
14516;SDS011;7344;50.864;4.362;2023-02-26T01:21:17;8.37;;;4.57;;
14516;SDS011;7344;50.864;4.362;2023-02-26T01:23:50;9.03;;;5.40;;
14516;SDS011;7344;50.864;4.362;2023-02-26T01:26:23;9.80;;;4.37;;
14516;SDS011;7344;50.864;4.362;2023-02-26T01:28:52;12.23;;;4.50;;
14516;SDS011;7344;50.864;4.362;2023-02-26T01:31:33;11.17;;;4.67;;
14516;SDS011;7344;50.864;4.362;2023-02-26T01:34:14;10.40;;;3.83;;
14516;SDS011;7344;50.864;4.362;2023-02-26T01:36:57;6.97;;;3.60;;
14516;SDS011;7344;50.864;4.362;2023-02-26T01:39:38;11.67;;;4.50;;
14516;SDS011;7344;50.864;4.362;2023-02-26T01:42:17;8.33;;;4.17;;
14516;SDS011;7344;50.864;4.362;2023-02-26T01:45:03;11.73;;;4.50;;
14516;SDS011;7344;50.864;4.362;2023-02-26T01:47:35;8.33;;;4.90;;
14516;SDS011;7344;50.864;4.362;2023-02-26T01:50:07;18.67;;;7.67;;
14516;SDS011;7344;50.864;4.362;2023-02-26T01:55:12;17.67;;;8.57;;
14516;SDS011;7344;50.864;4.362;2023-02-26T01:57:39;21.07;;;9.07;;
14516;SDS011;7344;50.864;4.362;2023-02-26T02:00:05;18.57;;;11.13;;
14516;SDS011;7344;50.864;4.362;2023-02-26T02:02:31;14.43;;;6.87;;
14516;SDS011;7344;50.864;4.362;2023-02-26T02:04:57;17.03;;;6.70;;
14516;SDS011;7344;50.864;4.362;2023-02-26T02:07:31;15.40;;;5.80;;
14516;SDS011;7344;50.864;4.362;2023-02-26T02:09:56;15.53;;;6.23;;
14516;SDS011;7344;50.864;4.362;2023-02-26T02:12:43;13.10;;;4.60;;
14516;SDS011;7344;50.864;4.362;2023-02-26T02:15:16;10.10;;;4.70;;
14516;SDS011;7344;50.864;4.362;2023-02-26T02:18:04;12.87;;;4.30;;
14516;SDS011;7344;50.864;4.362;2023-02-26T02:31:21;6.73;;;3.60;;
14516;SDS011;7344;50.864;4.362;2023-02-26T02:36:44;9.73;;;3.93;;
14516;SDS011;7344;50.864;4.362;2023-02-26T02:42:07;6.03;;;2.83;;
14516;SDS011;7344;50.864;4.362;2023-02-26T02:44:42;10.00;;;3.40;;
14516;SDS011;7344;50.864;4.362;2023-02-26T02:47:12;5.53;;;3.30;;
14516;SDS011;7344;50.864;4.362;2023-02-26T02:49:54;8.27;;;3.47;;
14516;SDS011;7344;50.864;4.362;2023-02-26T02:52:45;10.97;;;3.33;;
14516;SDS011;7344;50.864;4.362;2023-02-26T02:55:23;8.93;;;3.00;;
14516;SDS011;7344;50.864;4.362;2023-02-26T02:57:59;8.10;;;3.10;;
14516;SDS011;7344;50.864;4.362;2023-02-26T03:00:29;9.47;;;3.40;;
14516;SDS011;7344;50.864;4.362;2023-02-26T03:05:26;7.13;;;3.50;;
14516;SDS011;7344;50.864;4.362;2023-02-26T03:07:53;3.77;;;2.67;;
14516;SDS011;7344;50.864;4.362;2023-02-26T03:10:25;9.83;;;3.20;;
14516;SDS011;7344;50.864;4.362;2023-02-26T03:12:51;7.17;;;3.10;;
14516;SDS011;7344;50.864;4.362;2023-02-26T03:15:18;9.83;;;3.17;;
14516;SDS011;7344;50.864;4.362;2023-02-26T03:20:58;6.33;;;3.10;;
14516;SDS011;7344;50.864;4.362;2023-02-26T03:23:53;6.90;;;2.80;;
14516;SDS011;7344;50.864;4.362;2023-02-26T03:26:38;9.93;;;2.70;;
14516;SDS011;7344;50.864;4.362;2023-02-26T03:29:41;11.63;;;3.60;;
14516;SDS011;7344;50.864;4.362;2023-02-26T03:34:53;7.40;;;2.80;;
14516;SDS011;7344;50.864;4.362;2023-02-26T03:37:26;6.97;;;3.10;;
14516;SDS011;7344;50.864;4.362;2023-02-26T03:41:04;11.27;;;3.30;;
14516;SDS011;7344;50.864;4.362;2023-02-26T03:43:27;6.10;;;3.00;;
14516;SDS011;7344;50.864;4.362;2023-02-26T03:46:01;9.53;;;3.17;;
14516;SDS011;7344;50.864;4.362;2023-02-26T03:48:30;6.90;;;3.10;;
14516;SDS011;7344;50.864;4.362;2023-02-26T03:50:59;7.80;;;3.00;;
14516;SDS011;7344;50.864;4.362;2023-02-26T03:53:32;5.33;;;2.73;;
14516;SDS011;7344;50.864;4.362;2023-02-26T03:56:20;8.70;;;3.20;;
14516;SDS011;7344;50.864;4.362;2023-02-26T03:58:55;6.50;;;3.63;;
14516;SDS011;7344;50.864;4.362;2023-02-26T04:01:22;6.57;;;2.73;;
14516;SDS011;7344;50.864;4.362;2023-02-26T04:03:54;8.30;;;3.23;;
14516;SDS011;7344;50.864;4.362;2023-02-26T04:06:24;9.77;;;3.20;;
14516;SDS011;7344;50.864;4.362;2023-02-26T04:08:51;6.27;;;2.90;;
14516;SDS011;7344;50.864;4.362;2023-02-26T04:11:19;5.83;;;2.40;;
14516;SDS011;7344;50.864;4.362;2023-02-26T04:13:45;8.27;;;2.87;;
14516;SDS011;7344;50.864;4.362;2023-02-26T04:16:12;7.87;;;2.90;;
14516;SDS011;7344;50.864;4.362;2023-02-26T04:18:38;8.73;;;3.23;;
14516;SDS011;7344;50.864;4.362;2023-02-26T04:21:05;7.83;;;3.00;;
14516;SDS011;7344;50.864;4.362;2023-02-26T04:23:31;6.33;;;3.00;;
14516;SDS011;7344;50.864;4.362;2023-02-26T04:25:56;5.87;;;2.60;;
14516;SDS011;7344;50.864;4.362;2023-02-26T04:28:22;4.47;;;2.70;;
14516;SDS011;7344;50.864;4.362;2023-02-26T04:30:47;4.43;;;2.73;;
14516;SDS011;7344;50.864;4.362;2023-02-26T04:33:13;5.33;;;2.93;;
14516;SDS011;7344;50.864;4.362;2023-02-26T04:35:42;7.30;;;3.00;;
14516;SDS011;7344;50.864;4.362;2023-02-26T04:38:07;7.53;;;2.90;;
14516;SDS011;7344;50.864;4.362;2023-02-26T04:40:33;9.97;;;2.80;;
14516;SDS011;7344;50.864;4.362;2023-02-26T04:42:59;7.47;;;3.00;;
14516;SDS011;7344;50.864;4.362;2023-02-26T04:45:24;5.63;;;3.03;;
14516;SDS011;7344;50.864;4.362;2023-02-26T04:47:50;4.73;;;2.63;;
14516;SDS011;7344;50.864;4.362;2023-02-26T04:50:16;6.40;;;2.77;;
14516;SDS011;7344;50.864;4.362;2023-02-26T04:52:41;7.97;;;2.60;;
14516;SDS011;7344;50.864;4.362;2023-02-26T04:55:07;10.07;;;2.90;;
14516;SDS011;7344;50.864;4.362;2023-02-26T04:57:33;9.43;;;3.17;;
14516;SDS011;7344;50.864;4.362;2023-02-26T04:59:58;5.00;;;2.53;;
14516;SDS011;7344;50.864;4.362;2023-02-26T05:02:24;5.87;;;2.20;;
14516;SDS011;7344;50.864;4.362;2023-02-26T05:04:50;6.57;;;2.40;;
14516;SDS011;7344;50.864;4.362;2023-02-26T05:07:15;4.87;;;2.43;;
14516;SDS011;7344;50.864;4.362;2023-02-26T05:09:41;6.73;;;2.87;;
14516;SDS011;7344;50.864;4.362;2023-02-26T05:12:06;7.10;;;3.10;;
14516;SDS011;7344;50.864;4.362;2023-02-26T05:14:32;5.13;;;2.40;;
14516;SDS011;7344;50.864;4.362;2023-02-26T05:16:58;2.97;;;2.10;;
14516;SDS011;7344;50.864;4.362;2023-02-26T05:19:23;9.70;;;2.93;;
14516;SDS011;7344;50.864;4.362;2023-02-26T05:21:49;8.23;;;2.23;;
14516;SDS011;7344;50.864;4.362;2023-02-26T05:24:15;7.07;;;2.30;;
14516;SDS011;7344;50.864;4.362;2023-02-26T05:26:41;5.17;;;2.50;;
14516;SDS011;7344;50.864;4.362;2023-02-26T05:29:06;4.70;;;2.30;;
14516;SDS011;7344;50.864;4.362;2023-02-26T05:31:32;3.87;;;2.07;;
14516;SDS011;7344;50.864;4.362;2023-02-26T05:33:58;6.17;;;2.63;;
14516;SDS011;7344;50.864;4.362;2023-02-26T05:36:23;6.03;;;2.23;;
14516;SDS011;7344;50.864;4.362;2023-02-26T05:38:49;4.57;;;1.90;;
14516;SDS011;7344;50.864;4.362;2023-02-26T05:41:15;7.50;;;2.30;;
14516;SDS011;7344;50.864;4.362;2023-02-26T05:43:40;5.97;;;2.50;;
14516;SDS011;7344;50.864;4.362;2023-02-26T05:46:06;3.73;;;2.37;;
14516;SDS011;7344;50.864;4.362;2023-02-26T05:48:32;5.90;;;2.73;;
14516;SDS011;7344;50.864;4.362;2023-02-26T05:50:58;9.00;;;2.40;;
14516;SDS011;7344;50.864;4.362;2023-02-26T05:53:24;5.17;;;2.57;;
14516;SDS011;7344;50.864;4.362;2023-02-26T05:55:51;6.43;;;2.57;;
14516;SDS011;7344;50.864;4.362;2023-02-26T05:58:17;6.57;;;2.37;;
14516;SDS011;7344;50.864;4.362;2023-02-26T06:00:43;7.67;;;3.10;;
14516;SDS011;7344;50.864;4.362;2023-02-26T06:03:09;9.27;;;2.70;;
14516;SDS011;7344;50.864;4.362;2023-02-26T06:05:35;7.00;;;2.50;;
14516;SDS011;7344;50.864;4.362;2023-02-26T06:08:01;6.57;;;2.60;;
14516;SDS011;7344;50.864;4.362;2023-02-26T06:10:27;8.33;;;2.20;;
14516;SDS011;7344;50.864;4.362;2023-02-26T06:12:53;5.70;;;2.00;;
14516;SDS011;7344;50.864;4.362;2023-02-26T06:15:18;4.57;;;1.70;;
14516;SDS011;7344;50.864;4.362;2023-02-26T06:17:44;7.73;;;2.83;;
14516;SDS011;7344;50.864;4.362;2023-02-26T06:20:10;6.57;;;2.50;;
14516;SDS011;7344;50.864;4.362;2023-02-26T06:22:36;3.80;;;2.20;;
14516;SDS011;7344;50.864;4.362;2023-02-26T06:25:02;4.33;;;2.30;;
14516;SDS011;7344;50.864;4.362;2023-02-26T06:27:29;6.30;;;2.40;;
14516;SDS011;7344;50.864;4.362;2023-02-26T06:29:55;8.57;;;1.90;;
14516;SDS011;7344;50.864;4.362;2023-02-26T06:32:20;5.13;;;2.13;;
14516;SDS011;7344;50.864;4.362;2023-02-26T06:34:46;5.33;;;1.90;;
14516;SDS011;7344;50.864;4.362;2023-02-26T06:37:12;3.70;;;2.30;;
14516;SDS011;7344;50.864;4.362;2023-02-26T06:39:37;4.57;;;2.27;;
14516;SDS011;7344;50.864;4.362;2023-02-26T06:42:03;5.87;;;2.33;;
14516;SDS011;7344;50.864;4.362;2023-02-26T06:44:29;7.03;;;2.37;;
14516;SDS011;7344;50.864;4.362;2023-02-26T06:46:54;4.73;;;1.90;;
14516;SDS011;7344;50.864;4.362;2023-02-26T06:49:20;3.07;;;2.13;;
14516;SDS011;7344;50.864;4.362;2023-02-26T06:51:46;3.57;;;1.83;;
14516;SDS011;7344;50.864;4.362;2023-02-26T06:54:11;3.50;;;2.03;;
14516;SDS011;7344;50.864;4.362;2023-02-26T06:56:37;4.13;;;2.13;;
14516;SDS011;7344;50.864;4.362;2023-02-26T06:59:02;6.33;;;2.23;;
14516;SDS011;7344;50.864;4.362;2023-02-26T07:01:28;3.17;;;2.03;;
14516;SDS011;7344;50.864;4.362;2023-02-26T07:03:55;6.70;;;2.27;;
14516;SDS011;7344;50.864;4.362;2023-02-26T07:06:21;5.00;;;2.03;;
14516;SDS011;7344;50.864;4.362;2023-02-26T07:08:47;3.87;;;2.13;;
14516;SDS011;7344;50.864;4.362;2023-02-26T07:11:13;4.50;;;1.97;;
14516;SDS011;7344;50.864;4.362;2023-02-26T07:13:39;5.97;;;1.97;;
14516;SDS011;7344;50.864;4.362;2023-02-26T07:16:04;4.00;;;1.73;;
14516;SDS011;7344;50.864;4.362;2023-02-26T07:18:34;9.97;;;1.87;;
14516;SDS011;7344;50.864;4.362;2023-02-26T07:21:01;3.17;;;1.70;;
14516;SDS011;7344;50.864;4.362;2023-02-26T07:23:27;5.67;;;1.90;;
14516;SDS011;7344;50.864;4.362;2023-02-26T07:25:53;3.63;;;1.90;;
14516;SDS011;7344;50.864;4.362;2023-02-26T07:28:20;7.67;;;1.80;;
14516;SDS011;7344;50.864;4.362;2023-02-26T07:30:47;5.67;;;1.60;;
14516;SDS011;7344;50.864;4.362;2023-02-26T07:33:12;3.83;;;1.83;;
14516;SDS011;7344;50.864;4.362;2023-02-26T07:35:38;6.50;;;1.60;;
14516;SDS011;7344;50.864;4.362;2023-02-26T07:38:04;1.90;;;1.13;;
14516;SDS011;7344;50.864;4.362;2023-02-26T07:40:30;4.80;;;1.50;;
14516;SDS011;7344;50.864;4.362;2023-02-26T07:42:56;5.53;;;1.87;;
14516;SDS011;7344;50.864;4.362;2023-02-26T07:45:22;3.83;;;1.83;;
14516;SDS011;7344;50.864;4.362;2023-02-26T07:47:48;4.60;;;2.07;;
14516;SDS011;7344;50.864;4.362;2023-02-26T07:50:16;3.63;;;1.83;;
14516;SDS011;7344;50.864;4.362;2023-02-26T07:52:42;3.27;;;1.97;;
14516;SDS011;7344;50.864;4.362;2023-02-26T07:55:08;7.47;;;1.93;;
14516;SDS011;7344;50.864;4.362;2023-02-26T07:57:34;3.53;;;1.40;;
14516;SDS011;7344;50.864;4.362;2023-02-26T07:59:59;4.30;;;2.10;;
14516;SDS011;7344;50.864;4.362;2023-02-26T08:02:25;3.67;;;1.20;;
14516;SDS011;7344;50.864;4.362;2023-02-26T08:04:51;2.77;;;1.77;;
14516;SDS011;7344;50.864;4.362;2023-02-26T08:07:17;2.10;;;1.53;;
14516;SDS011;7344;50.864;4.362;2023-02-26T08:12:29;4.70;;;1.37;;
14516;SDS011;7344;50.864;4.362;2023-02-26T08:14:55;3.33;;;1.50;;
14516;SDS011;7344;50.864;4.362;2023-02-26T08:17:20;2.90;;;1.37;;
14516;SDS011;7344;50.864;4.362;2023-02-26T08:19:46;3.03;;;1.40;;
14516;SDS011;7344;50.864;4.362;2023-02-26T08:22:11;2.60;;;1.60;;
14516;SDS011;7344;50.864;4.362;2023-02-26T08:24:38;3.90;;;1.50;;
14516;SDS011;7344;50.864;4.362;2023-02-26T08:27:03;3.30;;;1.27;;
14516;SDS011;7344;50.864;4.362;2023-02-26T08:29:29;4.63;;;1.60;;
14516;SDS011;7344;50.864;4.362;2023-02-26T08:31:55;1.50;;;1.20;;
14516;SDS011;7344;50.864;4.362;2023-02-26T08:34:20;3.47;;;1.57;;
14516;SDS011;7344;50.864;4.362;2023-02-26T08:36:46;4.50;;;1.60;;
14516;SDS011;7344;50.864;4.362;2023-02-26T08:39:11;3.97;;;1.33;;
14516;SDS011;7344;50.864;4.362;2023-02-26T08:41:37;1.80;;;1.33;;
14516;SDS011;7344;50.864;4.362;2023-02-26T08:44:03;1.60;;;0.83;;
14516;SDS011;7344;50.864;4.362;2023-02-26T08:46:29;4.90;;;1.40;;
14516;SDS011;7344;50.864;4.362;2023-02-26T08:48:54;2.87;;;1.87;;
14516;SDS011;7344;50.864;4.362;2023-02-26T08:51:20;5.43;;;1.37;;
14516;SDS011;7344;50.864;4.362;2023-02-26T08:53:46;3.90;;;1.67;;
14516;SDS011;7344;50.864;4.362;2023-02-26T08:56:14;5.07;;;1.60;;
14516;SDS011;7344;50.864;4.362;2023-02-26T08:58:40;2.23;;;1.50;;
14516;SDS011;7344;50.864;4.362;2023-02-26T09:01:06;2.47;;;1.33;;
14516;SDS011;7344;50.864;4.362;2023-02-26T09:03:32;2.20;;;1.30;;
14516;SDS011;7344;50.864;4.362;2023-02-26T09:05:57;3.07;;;1.70;;
14516;SDS011;7344;50.864;4.362;2023-02-26T09:08:23;2.87;;;1.40;;
14516;SDS011;7344;50.864;4.362;2023-02-26T09:10:48;2.37;;;1.27;;
14516;SDS011;7344;50.864;4.362;2023-02-26T09:13:14;4.50;;;1.60;;
14516;SDS011;7344;50.864;4.362;2023-02-26T09:15:40;4.10;;;1.73;;
14516;SDS011;7344;50.864;4.362;2023-02-26T09:18:05;1.77;;;1.40;;
14516;SDS011;7344;50.864;4.362;2023-02-26T09:20:31;2.53;;;1.00;;
14516;SDS011;7344;50.864;4.362;2023-02-26T09:22:57;1.80;;;1.30;;
14516;SDS011;7344;50.864;4.362;2023-02-26T09:25:23;3.93;;;1.60;;
14516;SDS011;7344;50.864;4.362;2023-02-26T09:27:48;2.37;;;1.50;;
14516;SDS011;7344;50.864;4.362;2023-02-26T09:30:14;1.63;;;1.00;;
14516;SDS011;7344;50.864;4.362;2023-02-26T09:32:40;2.47;;;1.27;;
14516;SDS011;7344;50.864;4.362;2023-02-26T09:35:06;3.57;;;1.03;;
14516;SDS011;7344;50.864;4.362;2023-02-26T09:37:32;1.70;;;1.10;;
14516;SDS011;7344;50.864;4.362;2023-02-26T09:39:58;1.87;;;1.27;;
14516;SDS011;7344;50.864;4.362;2023-02-26T09:45:34;2.87;;;1.63;;
14516;SDS011;7344;50.864;4.362;2023-02-26T09:48:02;3.53;;;1.20;;
14516;SDS011;7344;50.864;4.362;2023-02-26T09:50:38;2.57;;;1.23;;
14516;SDS011;7344;50.864;4.362;2023-02-26T09:55:44;3.33;;;1.30;;
14516;SDS011;7344;50.864;4.362;2023-02-26T10:03:59;2.10;;;0.93;;
14516;SDS011;7344;50.864;4.362;2023-02-26T10:06:27;1.93;;;1.23;;
14516;SDS011;7344;50.864;4.362;2023-02-26T10:12:13;1.30;;;1.00;;
14516;SDS011;7344;50.864;4.362;2023-02-26T10:14:43;1.90;;;1.13;;
14516;SDS011;7344;50.864;4.362;2023-02-26T10:19:57;3.23;;;1.00;;
14516;SDS011;7344;50.864;4.362;2023-02-26T10:22:40;1.17;;;0.80;;
14516;SDS011;7344;50.864;4.362;2023-02-26T10:25:28;3.10;;;1.20;;
14516;SDS011;7344;50.864;4.362;2023-02-26T10:30:45;1.70;;;1.57;;
14516;SDS011;7344;50.864;4.362;2023-02-26T10:33:37;3.67;;;1.80;;
14516;SDS011;7344;50.864;4.362;2023-02-26T10:41:44;2.27;;;1.03;;
14516;SDS011;7344;50.864;4.362;2023-02-26T10:44:23;3.40;;;1.40;;
14516;SDS011;7344;50.864;4.362;2023-02-26T10:47:10;1.37;;;0.90;;
14516;SDS011;7344;50.864;4.362;2023-02-26T10:52:36;1.73;;;0.80;;
14516;SDS011;7344;50.864;4.362;2023-02-26T10:57:59;2.83;;;1.40;;
14516;SDS011;7344;50.864;4.362;2023-02-26T11:00:26;1.30;;;1.03;;
14516;SDS011;7344;50.864;4.362;2023-02-26T11:02:52;4.77;;;1.20;;
14516;SDS011;7344;50.864;4.362;2023-02-26T11:05:21;3.37;;;1.87;;
14516;SDS011;7344;50.864;4.362;2023-02-26T11:07:48;3.23;;;0.97;;
14516;SDS011;7344;50.864;4.362;2023-02-26T11:10:19;2.03;;;1.10;;
14516;SDS011;7344;50.864;4.362;2023-02-26T11:12:52;2.43;;;0.90;;
14516;SDS011;7344;50.864;4.362;2023-02-26T11:15:19;2.87;;;1.07;;
14516;SDS011;7344;50.864;4.362;2023-02-26T11:17:47;1.20;;;1.10;;
14516;SDS011;7344;50.864;4.362;2023-02-26T11:23:09;2.07;;;1.07;;
14516;SDS011;7344;50.864;4.362;2023-02-26T11:25:44;3.50;;;1.20;;
14516;SDS011;7344;50.864;4.362;2023-02-26T11:30:56;1.47;;;1.13;;
14516;SDS011;7344;50.864;4.362;2023-02-26T11:33:39;1.27;;;1.17;;
14516;SDS011;7344;50.864;4.362;2023-02-26T11:36:13;3.43;;;1.50;;
14516;SDS011;7344;50.864;4.362;2023-02-26T11:38:45;4.27;;;1.60;;
14516;SDS011;7344;50.864;4.362;2023-02-26T11:41:17;2.03;;;1.00;;
14516;SDS011;7344;50.864;4.362;2023-02-26T11:43:44;5.17;;;1.40;;
14516;SDS011;7344;50.864;4.362;2023-02-26T11:46:12;1.00;;;1.00;;
14516;SDS011;7344;50.864;4.362;2023-02-26T11:48:46;2.67;;;1.10;;
14516;SDS011;7344;50.864;4.362;2023-02-26T11:51:14;2.53;;;1.30;;
14516;SDS011;7344;50.864;4.362;2023-02-26T11:53:50;2.33;;;1.33;;
14516;SDS011;7344;50.864;4.362;2023-02-26T11:56:21;1.53;;;1.30;;
14516;SDS011;7344;50.864;4.362;2023-02-26T11:58:51;2.10;;;1.90;;
14516;SDS011;7344;50.864;4.362;2023-02-26T12:01:19;3.73;;;1.30;;
14516;SDS011;7344;50.864;4.362;2023-02-26T12:03:47;4.47;;;1.67;;
14516;SDS011;7344;50.864;4.362;2023-02-26T12:06:18;3.87;;;1.53;;
14516;SDS011;7344;50.864;4.362;2023-02-26T12:08:46;2.40;;;1.30;;
14516;SDS011;7344;50.864;4.362;2023-02-26T12:11:20;0.83;;;0.77;;
14516;SDS011;7344;50.864;4.362;2023-02-26T12:14:14;2.23;;;1.17;;
14516;SDS011;7344;50.864;4.362;2023-02-26T12:16:55;2.80;;;1.30;;
14516;SDS011;7344;50.864;4.362;2023-02-26T12:27:18;2.13;;;1.60;;
14516;SDS011;7344;50.864;4.362;2023-02-26T12:38:42;2.07;;;1.30;;
14516;SDS011;7344;50.864;4.362;2023-02-26T12:41:16;2.70;;;1.30;;
14516;SDS011;7344;50.864;4.362;2023-02-26T12:47:31;4.10;;;1.33;;
14516;SDS011;7344;50.864;4.362;2023-02-26T12:50:24;0.67;;;0.67;;
14516;SDS011;7344;50.864;4.362;2023-02-26T12:55:38;1.33;;;1.00;;
14516;SDS011;7344;50.864;4.362;2023-02-26T13:03:40;1.53;;;1.23;;
14516;SDS011;7344;50.864;4.362;2023-02-26T13:06:19;1.37;;;1.20;;
14516;SDS011;7344;50.864;4.362;2023-02-26T13:11:54;1.87;;;1.00;;
14516;SDS011;7344;50.864;4.362;2023-02-26T13:17:11;2.70;;;1.50;;
14516;SDS011;7344;50.864;4.362;2023-02-26T13:19:58;1.40;;;1.30;;
14516;SDS011;7344;50.864;4.362;2023-02-26T13:22:32;3.37;;;1.07;;
14516;SDS011;7344;50.864;4.362;2023-02-26T13:25:04;1.70;;;1.20;;
14516;SDS011;7344;50.864;4.362;2023-02-26T13:27:47;0.93;;;0.93;;
14516;SDS011;7344;50.864;4.362;2023-02-26T13:30:17;2.53;;;1.30;;
14516;SDS011;7344;50.864;4.362;2023-02-26T13:32:52;3.97;;;1.23;;
14516;SDS011;7344;50.864;4.362;2023-02-26T13:37:52;2.20;;;1.10;;
14516;SDS011;7344;50.864;4.362;2023-02-26T13:46:07;1.17;;;1.00;;
14516;SDS011;7344;50.864;4.362;2023-02-26T13:56:42;1.23;;;1.10;;
14516;SDS011;7344;50.864;4.362;2023-02-26T13:59:35;2.67;;;1.00;;
14516;SDS011;7344;50.864;4.362;2023-02-26T14:04:54;1.93;;;0.90;;
14516;SDS011;7344;50.864;4.362;2023-02-26T14:11:02;3.23;;;1.07;;
14516;SDS011;7344;50.864;4.362;2023-02-26T14:13:16;2.13;;;1.50;;
14516;SDS011;7344;50.864;4.362;2023-02-26T14:15:48;2.33;;;1.10;;
14516;SDS011;7344;50.864;4.362;2023-02-26T14:18:36;2.53;;;1.47;;
14516;SDS011;7344;50.864;4.362;2023-02-26T14:21:30;1.17;;;1.07;;
14516;SDS011;7344;50.864;4.362;2023-02-26T14:26:48;1.30;;;1.13;;
14516;SDS011;7344;50.864;4.362;2023-02-26T14:29:20;1.27;;;1.17;;
14516;SDS011;7344;50.864;4.362;2023-02-26T14:32:03;0.70;;;0.70;;
14516;SDS011;7344;50.864;4.362;2023-02-26T14:34:30;1.53;;;1.30;;
14516;SDS011;7344;50.864;4.362;2023-02-26T14:37:01;1.23;;;1.17;;
14516;SDS011;7344;50.864;4.362;2023-02-26T14:39:45;1.70;;;1.17;;
14516;SDS011;7344;50.864;4.362;2023-02-26T14:44:49;1.97;;;1.30;;
14516;SDS011;7344;50.864;4.362;2023-02-26T14:47:19;1.87;;;1.50;;
14516;SDS011;7344;50.864;4.362;2023-02-26T14:49:46;2.53;;;1.07;;
14516;SDS011;7344;50.864;4.362;2023-02-26T14:57:41;1.70;;;1.60;;
14516;SDS011;7344;50.864;4.362;2023-02-26T15:00:25;1.60;;;1.47;;
14516;SDS011;7344;50.864;4.362;2023-02-26T15:09:03;1.60;;;1.50;;
14516;SDS011;7344;50.864;4.362;2023-02-26T15:12:13;1.60;;;1.50;;
14516;SDS011;7344;50.864;4.362;2023-02-26T15:23:18;1.50;;;1.40;;
14516;SDS011;7344;50.864;4.362;2023-02-26T15:26:07;3.13;;;1.63;;
14516;SDS011;7344;50.864;4.362;2023-02-26T15:28:44;1.60;;;1.50;;
14516;SDS011;7344;50.864;4.362;2023-02-26T15:31:10;1.90;;;1.20;;
14516;SDS011;7344;50.864;4.362;2023-02-26T15:33:37;1.63;;;1.50;;
14516;SDS011;7344;50.864;4.362;2023-02-26T15:36:05;2.87;;;1.60;;
14516;SDS011;7344;50.864;4.362;2023-02-26T15:38:41;2.00;;;1.80;;
14516;SDS011;7344;50.864;4.362;2023-02-26T15:41:09;4.17;;;1.80;;
14516;SDS011;7344;50.864;4.362;2023-02-26T15:43:36;4.40;;;1.60;;
14516;SDS011;7344;50.864;4.362;2023-02-26T15:46:02;3.93;;;1.47;;
14516;SDS011;7344;50.864;4.362;2023-02-26T15:48:30;1.20;;;1.03;;
14516;SDS011;7344;50.864;4.362;2023-02-26T15:51:00;3.20;;;1.60;;
14516;SDS011;7344;50.864;4.362;2023-02-26T15:53:32;1.43;;;1.17;;
14516;SDS011;7344;50.864;4.362;2023-02-26T15:56:17;1.63;;;1.27;;
14516;SDS011;7344;50.864;4.362;2023-02-26T15:58:51;6.23;;;1.60;;
14516;SDS011;7344;50.864;4.362;2023-02-26T16:01:24;4.37;;;1.60;;
14516;SDS011;7344;50.864;4.362;2023-02-26T16:03:51;1.57;;;1.33;;
14516;SDS011;7344;50.864;4.362;2023-02-26T16:06:23;1.70;;;1.30;;
14516;SDS011;7344;50.864;4.362;2023-02-26T16:08:58;2.47;;;1.70;;
14516;SDS011;7344;50.864;4.362;2023-02-26T16:11:26;1.47;;;1.30;;
14516;SDS011;7344;50.864;4.362;2023-02-26T16:13:57;1.33;;;1.00;;
14516;SDS011;7344;50.864;4.362;2023-02-26T16:16:25;4.43;;;1.43;;
14516;SDS011;7344;50.864;4.362;2023-02-26T16:18:53;0.97;;;0.97;;
14516;SDS011;7344;50.864;4.362;2023-02-26T16:21:22;4.07;;;1.67;;
14516;SDS011;7344;50.864;4.362;2023-02-26T16:23:55;1.57;;;1.30;;
14516;SDS011;7344;50.864;4.362;2023-02-26T16:26:27;2.00;;;1.30;;
14516;SDS011;7344;50.864;4.362;2023-02-26T16:29:05;1.63;;;1.20;;
14516;SDS011;7344;50.864;4.362;2023-02-26T16:31:37;2.13;;;1.30;;
14516;SDS011;7344;50.864;4.362;2023-02-26T16:37:23;2.13;;;1.87;;
14516;SDS011;7344;50.864;4.362;2023-02-26T16:40:11;3.77;;;2.40;;
14516;SDS011;7344;50.864;4.362;2023-02-26T16:48:16;2.70;;;1.50;;
14516;SDS011;7344;50.864;4.362;2023-02-26T16:50:46;2.23;;;1.70;;
14516;SDS011;7344;50.864;4.362;2023-02-26T16:53:28;2.33;;;2.00;;
14516;SDS011;7344;50.864;4.362;2023-02-26T16:56:01;2.20;;;2.00;;
14516;SDS011;7344;50.864;4.362;2023-02-26T16:58:28;2.90;;;1.53;;
14516;SDS011;7344;50.864;4.362;2023-02-26T17:01:06;3.77;;;2.27;;
14516;SDS011;7344;50.864;4.362;2023-02-26T17:03:36;3.07;;;2.00;;
14516;SDS011;7344;50.864;4.362;2023-02-26T17:06:12;2.20;;;2.00;;
14516;SDS011;7344;50.864;4.362;2023-02-26T17:08:53;2.77;;;1.80;;
14516;SDS011;7344;50.864;4.362;2023-02-26T17:11:26;2.03;;;1.80;;
14516;SDS011;7344;50.864;4.362;2023-02-26T17:14:01;4.47;;;2.10;;
14516;SDS011;7344;50.864;4.362;2023-02-26T17:16:34;3.60;;;2.00;;
14516;SDS011;7344;50.864;4.362;2023-02-26T17:18:59;5.37;;;2.50;;
14516;SDS011;7344;50.864;4.362;2023-02-26T17:21:26;4.73;;;2.53;;
14516;SDS011;7344;50.864;4.362;2023-02-26T17:23:52;2.93;;;2.27;;
14516;SDS011;7344;50.864;4.362;2023-02-26T17:26:19;3.77;;;2.13;;
14516;SDS011;7344;50.864;4.362;2023-02-26T17:28:45;2.80;;;2.33;;
14516;SDS011;7344;50.864;4.362;2023-02-26T17:31:10;2.37;;;2.17;;
14516;SDS011;7344;50.864;4.362;2023-02-26T17:33:37;2.53;;;1.90;;
14516;SDS011;7344;50.864;4.362;2023-02-26T17:36:05;6.93;;;2.90;;
14516;SDS011;7344;50.864;4.362;2023-02-26T17:38:31;5.90;;;2.47;;
14516;SDS011;7344;50.864;4.362;2023-02-26T17:40:57;4.87;;;2.30;;
14516;SDS011;7344;50.864;4.362;2023-02-26T17:43:23;5.57;;;3.53;;
14516;SDS011;7344;50.864;4.362;2023-02-26T17:45:49;5.80;;;3.37;;
14516;SDS011;7344;50.864;4.362;2023-02-26T17:48:16;8.80;;;3.77;;
14516;SDS011;7344;50.864;4.362;2023-02-26T17:50:46;4.63;;;3.00;;
14516;SDS011;7344;50.864;4.362;2023-02-26T17:53:16;5.30;;;2.70;;
14516;SDS011;7344;50.864;4.362;2023-02-26T17:55:44;5.50;;;3.00;;
14516;SDS011;7344;50.864;4.362;2023-02-26T17:58:29;3.60;;;2.60;;
14516;SDS011;7344;50.864;4.362;2023-02-26T18:00:58;4.10;;;3.10;;